Time;durP1;ratioP1;P1;durP2;ratioP2;P2;SDS_P1;SDS_P2;PMS_P1;PMS_P2;Temp;Humidity;BMP_temperature;BMP_pressure;BME280_temperature;BME280_humidity;BME280_pressure;Samples;Min_cycle;Max_cycle;Signal;HPM_P1;HPM_P2
2021/04/17 00:01:15;;;;;;;9.57;3.47;;;7.00;58.00;;;;;;5050912;28;20029;-69
2021/04/17 00:03:41;;;;;;;12.30;3.42;;;7.00;58.20;;;;;;5050709;28;20056;-69
2021/04/17 00:06:07;;;;;;;8.30;3.03;;;7.00;58.40;;;;;;5049443;28;20139;-69
2021/04/17 00:08:33;;;;;;;5.68;2.70;;;7.00;58.50;;;;;;5052023;28;20041;-69
2021/04/17 00:11:00;;;;;;;7.47;2.83;;;6.90;58.60;;;;;;5052077;28;20028;-68
2021/04/17 00:13:26;;;;;;;8.00;3.25;;;6.90;58.90;;;;;;5049372;28;20032;-69
2021/04/17 00:15:53;;;;;;;9.25;2.85;;;6.90;59.10;;;;;;5049842;28;20044;-68
2021/04/17 00:18:20;;;;;;;6.93;2.72;;;6.80;59.40;;;;;;5047076;28;20028;-68
2021/04/17 00:20:46;;;;;;;6.93;2.83;;;6.80;59.40;;;;;;5051816;28;20032;-68
2021/04/17 00:23:12;;;;;;;4.90;2.15;;;6.80;59.30;;;;;;5050790;28;20048;-68
2021/04/17 00:25:37;;;;;;;6.13;2.53;;;6.80;59.70;;;;;;5048597;28;20041;-68
2021/04/17 00:28:03;;;;;;;6.93;2.70;;;6.80;59.70;;;;;;5050973;28;20024;-68
2021/04/17 00:30:29;;;;;;;18.15;4.38;;;6.80;59.80;;;;;;5050729;28;20029;-68
2021/04/17 00:32:55;;;;;;;7.10;3.08;;;6.80;60.10;;;;;;5049233;28;20037;-69
2021/04/17 00:35:20;;;;;;;5.45;2.83;;;6.80;60.20;;;;;;5049032;28;20122;-68
2021/04/17 00:37:46;;;;;;;6.45;2.90;;;6.70;60.30;;;;;;5049966;28;20060;-69
2021/04/17 00:40:12;;;;;;;6.28;2.75;;;6.70;60.70;;;;;;5050895;28;20116;-69
2021/04/17 00:42:38;;;;;;;10.75;3.08;;;6.70;60.60;;;;;;5050726;28;20028;-69
2021/04/17 00:45:05;;;;;;;5.05;2.33;;;6.70;60.70;;;;;;5049646;28;20082;-68
2021/04/17 00:47:31;;;;;;;5.50;2.75;;;6.70;60.60;;;;;;5049468;28;20063;-68
2021/04/17 00:49:57;;;;;;;8.00;2.70;;;6.70;60.80;;;;;;5049637;28;20192;-69
2021/04/17 00:52:22;;;;;;;5.10;2.70;;;6.70;61.10;;;;;;5050664;28;20366;-69
2021/04/17 00:54:48;;;;;;;9.25;3.25;;;6.70;61.20;;;;;;5053077;28;20103;-68
2021/04/17 00:57:14;;;;;;;8.18;2.65;;;6.70;61.40;;;;;;5049246;28;20021;-69
2021/04/17 00:59:39;;;;;;;5.90;3.40;;;6.70;61.70;;;;;;5049899;28;20059;-69
2021/04/17 01:02:05;;;;;;;6.97;2.53;;;6.70;61.60;;;;;;5050972;28;20513;-68
2021/04/17 01:04:46;;;;;;;6.93;2.70;;;6.70;61.60;;;;;;5048522;28;20037;-68
2021/04/17 01:07:24;;;;;;;8.75;2.50;;;6.70;61.80;;;;;;5048793;28;20642;-69
2021/04/17 01:10:35;;;;;;;6.25;2.90;;;6.70;61.70;;;;;;5021531;28;20074;-68
2021/04/17 01:13:05;;;;;;;5.93;2.38;;;6.70;61.80;;;;;;4999022;28;20041;-68
2021/04/17 01:15:31;;;;;;;6.57;2.55;;;6.80;62.00;;;;;;5049989;28;20029;-68
2021/04/17 01:18:00;;;;;;;5.35;2.97;;;6.80;62.20;;;;;;5051706;28;20033;-68
2021/04/17 01:20:43;;;;;;;6.72;2.35;;;6.70;62.30;;;;;;5050427;28;20522;-68
2021/04/17 01:23:27;;;;;;;6.97;3.00;;;6.70;62.20;;;;;;5047587;28;20025;-69
2021/04/17 01:26:04;;;;;;;5.00;2.45;;;6.70;62.40;;;;;;5045916;28;20029;-68
2021/04/17 01:28:39;;;;;;;7.88;2.65;;;6.60;62.20;;;;;;5049436;28;20557;-68
2021/04/17 01:31:08;;;;;;;5.78;2.67;;;6.60;62.00;;;;;;5047174;28;20064;-68
2021/04/17 01:33:37;;;;;;;6.47;2.58;;;6.60;61.90;;;;;;5048849;28;20106;-68
2021/04/17 01:36:04;;;;;;;7.95;2.90;;;6.60;61.90;;;;;;5048588;28;20087;-68
2021/04/17 01:38:51;;;;;;;4.30;2.17;;;6.50;62.00;;;;;;5048999;28;20098;-68
2021/04/17 01:41:22;;;;;;;6.85;2.65;;;6.50;62.10;;;;;;5050404;28;20041;-68
2021/04/17 01:43:51;;;;;;;4.38;2.03;;;6.50;62.10;;;;;;5036202;28;20033;-68
2021/04/17 01:46:24;;;;;;;8.07;2.38;;;6.50;62.10;;;;;;5048026;28;20506;-68
2021/04/17 01:48:57;;;;;;;5.88;2.20;;;6.50;62.20;;;;;;5037092;28;20036;-68
2021/04/17 01:51:24;;;;;;;8.93;2.85;;;6.50;62.10;;;;;;5047300;28;20524;-68
2021/04/17 01:53:50;;;;;;;8.80;2.50;;;6.50;62.30;;;;;;5031722;28;20033;-68
2021/04/17 01:56:19;;;;;;;6.53;2.35;;;6.50;62.10;;;;;;5049553;28;20033;-68
2021/04/17 01:58:47;;;;;;;6.25;1.98;;;6.50;62.20;;;;;;5050114;28;20119;-68
2021/04/17 02:01:14;;;;;;;4.15;2.10;;;6.50;62.30;;;;;;5048706;28;20021;-68
2021/04/17 02:03:40;;;;;;;4.38;2.08;;;6.50;62.30;;;;;;5047518;28;20090;-68
2021/04/17 02:06:06;;;;;;;6.25;2.40;;;6.50;62.20;;;;;;5049084;28;20078;-69
2021/04/17 02:08:36;;;;;;;6.13;1.83;;;6.50;62.30;;;;;;5048702;28;20037;-69
2021/04/17 02:11:02;;;;;;;5.43;1.98;;;6.60;62.20;;;;;;5029176;28;20125;-69
2021/04/17 02:13:28;;;;;;;6.22;2.65;;;6.60;62.20;;;;;;5047479;28;20383;-69
2021/04/17 02:15:58;;;;;;;4.97;2.70;;;6.60;62.00;;;;;;5048879;28;20131;-68
2021/04/17 02:18:44;;;;;;;5.05;1.83;;;6.60;62.00;;;;;;5034907;28;20036;-68
2021/04/17 02:21:11;;;;;;;6.25;2.25;;;6.60;62.00;;;;;;5049731;28;20037;-68
2021/04/17 02:23:38;;;;;;;5.72;2.40;;;6.60;62.00;;;;;;5048415;28;20021;-69
2021/04/17 02:26:04;;;;;;;4.82;2.10;;;6.60;61.80;;;;;;5045181;28;20109;-68
2021/04/17 02:28:30;;;;;;;4.95;2.38;;;6.60;61.80;;;;;;5048799;28;20037;-68
2021/04/17 02:30:56;;;;;;;6.32;2.47;;;6.60;61.80;;;;;;5048217;28;20021;-68
2021/04/17 02:33:23;;;;;;;8.57;2.28;;;6.60;61.90;;;;;;5049280;28;20017;-68
2021/04/17 02:35:49;;;;;;;4.47;2.08;;;6.60;61.90;;;;;;5051604;28;20108;-68
2021/04/17 02:38:16;;;;;;;5.18;2.22;;;6.60;62.10;;;;;;5049504;28;20033;-68
2021/04/17 02:40:42;;;;;;;4.70;2.20;;;6.60;62.20;;;;;;5049605;28;20052;-69
2021/04/17 02:43:08;;;;;;;6.97;2.38;;;6.60;62.10;;;;;;5047879;28;20462;-69
2021/04/17 02:45:34;;;;;;;5.10;2.42;;;6.60;62.00;;;;;;5048875;28;20050;-68
2021/04/17 02:48:00;;;;;;;9.48;3.10;;;6.60;62.40;;;;;;5049864;28;20025;-68
2021/04/17 02:50:26;;;;;;;8.57;2.97;;;6.60;62.40;;;;;;5047351;28;20044;-68
2021/04/17 02:52:52;;;;;;;3.92;2.22;;;6.60;62.50;;;;;;5048495;28;20033;-69
2021/04/17 02:55:19;;;;;;;6.88;2.70;;;6.60;62.70;;;;;;5049149;28;20037;-68
2021/04/17 02:57:48;;;;;;;6.15;2.70;;;6.60;62.80;;;;;;5048071;28;20116;-68
2021/04/17 03:00:18;;;;;;;6.50;2.58;;;6.60;62.80;;;;;;5047767;28;20510;-68
2021/04/17 03:02:43;;;;;;;4.75;2.17;;;6.50;62.80;;;;;;5051844;28;20029;-68
2021/04/17 03:05:10;;;;;;;5.90;2.45;;;6.50;62.80;;;;;;5052432;28;20025;-68
2021/04/17 03:07:36;;;;;;;4.65;2.60;;;6.50;63.20;;;;;;5052901;28;20033;-70
2021/04/17 03:10:05;;;;;;;5.20;2.60;;;6.50;63.10;;;;;;5052927;28;20557;-69
2021/04/17 03:12:30;;;;;;;6.35;2.47;;;6.50;63.40;;;;;;5053240;28;20102;-69
2021/04/17 03:14:56;;;;;;;6.07;2.90;;;6.50;63.30;;;;;;5052999;28;20072;-69
2021/04/17 03:17:22;;;;;;;7.97;2.78;;;6.50;63.40;;;;;;5049518;28;20033;-69
2021/04/17 03:19:47;;;;;;;5.63;2.60;;;6.50;63.30;;;;;;5052885;28;20035;-68
2021/04/17 03:22:13;;;;;;;7.38;3.08;;;6.50;63.40;;;;;;5053073;28;20406;-69
2021/04/17 03:24:39;;;;;;;11.10;3.45;;;6.50;63.10;;;;;;5050806;28;20033;-69
2021/04/17 03:27:05;;;;;;;8.80;2.72;;;6.50;63.10;;;;;;5030083;28;20043;-69
2021/04/17 03:29:31;;;;;;;5.18;2.70;;;6.50;63.10;;;;;;5052110;28;20167;-68
2021/04/17 03:31:57;;;;;;;5.38;2.92;;;6.50;63.20;;;;;;5048986;28;20514;-68
2021/04/17 03:34:23;;;;;;;6.53;2.88;;;6.50;63.10;;;;;;5050774;28;20029;-68
2021/04/17 03:36:49;;;;;;;11.23;3.22;;;6.50;63.10;;;;;;5051964;28;20074;-68
2021/04/17 03:39:15;;;;;;;8.13;4.05;;;6.50;63.20;;;;;;5052675;28;20033;-68
2021/04/17 03:41:41;;;;;;;9.23;3.30;;;6.50;63.30;;;;;;5052314;28;20021;-68
2021/04/17 03:44:07;;;;;;;6.70;3.08;;;6.50;63.20;;;;;;5050840;28;20095;-68
2021/04/17 03:46:32;;;;;;;7.68;2.70;;;6.50;63.20;;;;;;5050441;28;20053;-68
2021/04/17 03:48:59;;;;;;;4.60;2.67;;;6.40;63.30;;;;;;5050519;28;20036;-69
2021/04/17 03:51:26;;;;;;;6.70;3.63;;;6.40;63.20;;;;;;5050665;28;20075;-68
2021/04/17 03:53:52;;;;;;;5.88;2.53;;;6.40;63.50;;;;;;5050568;28;20108;-69
2021/04/17 03:56:18;;;;;;;4.63;2.35;;;6.30;63.90;;;;;;5050593;28;20095;-68
2021/04/17 03:58:44;;;;;;;8.38;3.25;;;6.30;63.60;;;;;;5052079;28;20052;-68
2021/04/17 04:01:10;;;;;;;8.18;3.20;;;6.30;63.90;;;;;;5049540;28;20466;-68
2021/04/17 04:03:36;;;;;;;6.10;2.70;;;6.30;64.10;;;;;;5050476;28;20430;-70
2021/04/17 04:06:01;;;;;;;4.75;2.40;;;6.20;64.50;;;;;;5048936;28;20031;-68
2021/04/17 04:08:27;;;;;;;7.75;2.80;;;6.20;64.50;;;;;;5051858;28;20116;-69
2021/04/17 04:10:53;;;;;;;5.53;2.95;;;6.20;64.40;;;;;;5051030;28;20028;-69
2021/04/17 04:13:19;;;;;;;7.30;3.20;;;6.10;64.40;;;;;;5048273;28;20033;-68
2021/04/17 04:15:45;;;;;;;9.88;3.00;;;6.20;64.60;;;;;;5049922;28;20490;-67
2021/04/17 04:18:10;;;;;;;6.57;2.60;;;6.20;64.90;;;;;;5051179;28;20108;-68
2021/04/17 04:20:36;;;;;;;9.02;3.05;;;6.10;64.70;;;;;;5051020;28;20029;-67
2021/04/17 04:23:02;;;;;;;5.15;2.50;;;6.10;65.00;;;;;;5051627;28;20449;-69
2021/04/17 04:25:28;;;;;;;6.63;2.75;;;6.10;64.90;;;;;;5044925;28;20040;-67
2021/04/17 04:27:55;;;;;;;5.75;2.88;;;6.10;65.10;;;;;;5050210;28;20025;-68
2021/04/17 04:30:22;;;;;;;13.25;3.83;;;6.10;65.20;;;;;;5050101;28;20511;-69
2021/04/17 04:32:49;;;;;;;10.07;3.50;;;6.10;65.20;;;;;;5051147;28;20033;-68
2021/04/17 04:35:15;;;;;;;13.75;3.50;;;6.10;65.70;;;;;;5049415;28;20028;-68
2021/04/17 04:37:42;;;;;;;5.30;2.63;;;6.10;65.60;;;;;;5051347;28;20029;-68
2021/04/17 04:40:09;;;;;;;7.97;2.95;;;6.10;65.60;;;;;;5049945;28;20029;-68
2021/04/17 04:42:35;;;;;;;7.82;2.67;;;6.10;65.50;;;;;;5050063;28;20032;-68
2021/04/17 04:45:05;;;;;;;9.73;3.90;;;6.20;65.80;;;;;;5049010;28;20025;-68
2021/04/17 04:47:31;;;;;;;8.32;2.90;;;6.20;66.30;;;;;;5046432;28;20029;-68
2021/04/17 04:49:56;;;;;;;7.05;3.25;;;6.20;65.70;;;;;;5048556;28;20424;-68
2021/04/17 04:52:22;;;;;;;9.32;3.30;;;6.20;65.70;;;;;;5051268;28;20041;-68
2021/04/17 04:54:48;;;;;;;6.40;2.88;;;6.20;65.70;;;;;;5048041;28;20094;-68
2021/04/17 04:57:13;;;;;;;6.38;2.95;;;6.20;65.60;;;;;;5048917;28;20029;-68
2021/04/17 04:59:39;;;;;;;7.68;2.95;;;6.20;65.60;;;;;;5049381;28;20029;-68
2021/04/17 05:02:05;;;;;;;8.75;2.75;;;6.20;65.70;;;;;;5049656;28;20033;-68
2021/04/17 05:04:31;;;;;;;6.20;2.80;;;6.20;65.80;;;;;;5047985;28;20143;-68
2021/04/17 05:06:57;;;;;;;6.10;2.38;;;6.20;66.00;;;;;;5048783;28;20052;-68
2021/04/17 05:09:22;;;;;;;5.88;2.83;;;6.20;66.00;;;;;;5050264;28;20040;-68
2021/04/17 05:11:48;;;;;;;9.48;2.95;;;6.20;66.10;;;;;;5049512;28;20021;-68
2021/04/17 05:14:14;;;;;;;7.72;3.13;;;6.20;66.20;;;;;;5049334;28;20423;-68
2021/04/17 05:16:40;;;;;;;5.90;3.05;;;6.20;66.20;;;;;;5050220;28;20041;-67
2021/04/17 05:19:05;;;;;;;6.00;2.45;;;6.20;66.30;;;;;;5049581;28;20033;-68
2021/04/17 05:21:31;;;;;;;9.48;3.70;;;6.20;66.50;;;;;;5050541;28;20123;-67
2021/04/17 05:23:57;;;;;;;6.80;2.60;;;6.20;66.50;;;;;;5049329;28;20268;-68
2021/04/17 05:26:23;;;;;;;9.18;2.55;;;6.20;66.60;;;;;;5047655;28;20036;-68
2021/04/17 05:28:48;;;;;;;7.95;2.88;;;6.30;67.00;;;;;;5048881;28;20031;-68
2021/04/17 05:31:14;;;;;;;6.47;2.53;;;6.30;66.90;;;;;;5050676;28;20359;-68
2021/04/17 05:33:40;;;;;;;5.97;2.53;;;6.30;67.00;;;;;;5050858;28;20036;-68
2021/04/17 05:36:06;;;;;;;6.45;2.90;;;6.30;67.00;;;;;;5037131;28;20036;-69
2021/04/17 05:38:33;;;;;;;6.32;2.80;;;6.30;67.00;;;;;;5051089;28;20434;-68
2021/04/17 05:40:58;;;;;;;6.53;2.42;;;6.30;67.10;;;;;;5051097;28;20098;-68
2021/04/17 05:43:24;;;;;;;6.30;2.72;;;6.30;67.00;;;;;;5049275;28;20128;-68
2021/04/17 05:45:50;;;;;;;8.63;3.50;;;6.30;66.80;;;;;;5047530;28;20501;-68
2021/04/17 05:48:15;;;;;;;4.78;2.67;;;6.30;67.00;;;;;;5050294;28;20099;-67
2021/04/17 05:50:44;;;;;;;7.72;3.00;;;6.30;67.10;;;;;;5048350;28;20064;-68
2021/04/17 05:53:09;;;;;;;8.93;3.20;;;6.30;67.00;;;;;;5049411;28;20102;-68
2021/04/17 05:55:35;;;;;;;7.05;2.88;;;6.30;67.00;;;;;;5048236;28;20033;-69
2021/04/17 05:58:01;;;;;;;8.43;3.05;;;6.40;67.20;;;;;;5050030;28;20025;-67
2021/04/17 06:00:27;;;;;;;10.52;3.08;;;6.40;67.10;;;;;;5035009;28;20036;-68
2021/04/17 06:02:54;;;;;;;5.50;2.78;;;6.40;67.00;;;;;;5050099;28;20107;-68
2021/04/17 06:05:20;;;;;;;6.07;2.97;;;6.40;66.90;;;;;;5048972;28;20032;-67
2021/04/17 06:07:46;;;;;;;5.55;3.08;;;6.40;67.10;;;;;;5038904;28;20102;-67
2021/04/17 06:10:13;;;;;;;5.82;2.80;;;6.40;67.30;;;;;;5049067;28;20021;-69
2021/04/17 06:12:39;;;;;;;7.57;3.10;;;6.40;67.20;;;;;;5048956;22;20414;-68
2021/04/17 06:15:06;;;;;;;7.53;2.90;;;6.50;67.30;;;;;;5050594;28;20029;-67
2021/04/17 06:17:32;;;;;;;5.38;3.17;;;6.50;67.30;;;;;;5050249;28;20481;-68
2021/04/17 06:19:57;;;;;;;11.35;2.97;;;6.50;67.40;;;;;;5048349;28;20052;-68
2021/04/17 06:22:23;;;;;;;6.38;2.55;;;6.60;67.30;;;;;;5016479;28;20082;-69
2021/04/17 06:24:49;;;;;;;5.15;2.72;;;6.60;67.20;;;;;;5030105;28;20426;-69
2021/04/17 06:27:14;;;;;;;7.40;3.00;;;6.60;67.30;;;;;;5027712;28;20017;-70
2021/04/17 06:29:40;;;;;;;5.90;2.80;;;6.50;67.50;;;;;;5024234;28;21226;-71
2021/04/17 06:32:06;;;;;;;5.65;2.55;;;6.50;68.00;;;;;;5008295;28;20344;-71
2021/04/17 06:35:00;;;;;;;6.03;2.63;;;6.60;68.00;;;;;;4968049;28;20467;-69
2021/04/17 06:37:26;;;;;;;6.57;2.72;;;6.70;67.90;;;;;;5007154;28;20076;-69
2021/04/17 06:39:52;;;;;;;4.97;3.00;;;6.70;67.70;;;;;;5006378;28;20030;-68
2021/04/17 06:42:19;;;;;;;8.77;3.60;;;6.70;68.00;;;;;;4989698;28;20037;-69
2021/04/17 06:44:46;;;;;;;11.10;3.17;;;6.70;68.10;;;;;;4989104;28;20088;-67
2021/04/17 06:47:17;;;;;;;7.22;2.90;;;6.80;68.00;;;;;;4996419;23;20047;-69
2021/04/17 06:49:43;;;;;;;5.20;2.77;;;6.80;68.10;;;;;;4986603;28;20169;-68
2021/04/17 06:52:14;;;;;;;5.53;2.78;;;6.90;68.00;;;;;;4987164;28;20365;-71
2021/04/17 06:54:41;;;;;;;6.70;3.08;;;6.90;67.90;;;;;;4986243;28;20035;-71
2021/04/17 06:57:07;;;;;;;6.90;3.22;;;6.90;68.10;;;;;;4986529;28;20033;-70
2021/04/17 06:59:33;;;;;;;6.20;2.92;;;6.90;68.10;;;;;;4985850;28;20684;-68
2021/04/17 07:02:02;;;;;;;9.48;3.03;;;6.90;68.40;;;;;;4984082;28;20026;-67
2021/04/17 07:04:28;;;;;;;8.35;3.17;;;7.00;67.80;;;;;;4986292;28;20035;-68
2021/04/17 07:06:54;;;;;;;5.20;2.53;;;7.00;68.30;;;;;;4999301;28;20031;-76
2021/04/17 07:09:23;;;;;;;5.57;2.83;;;7.00;68.50;;;;;;4984503;28;20038;-72
2021/04/17 07:11:49;;;;;;;6.32;2.80;;;7.00;68.50;;;;;;4987355;28;20032;-66
2021/04/17 07:14:17;;;;;;;5.55;2.55;;;7.10;68.20;;;;;;4987876;28;20136;-67
2021/04/17 07:17:05;;;;;;;6.03;3.38;;;7.10;68.30;;;;;;4991529;28;20037;-67
2021/04/17 07:19:44;;;;;;;5.80;2.97;;;7.10;68.50;;;;;;4986673;28;20118;-67
2021/04/17 07:22:25;;;;;;;6.38;3.35;;;7.10;68.70;;;;;;4987726;28;20035;-69
2021/04/17 07:25:12;;;;;;;7.85;3.50;;;7.20;68.50;;;;;;4988472;28;20061;-67
2021/04/17 07:27:45;;;;;;;5.45;2.58;;;7.20;68.70;;;;;;4991896;28;20435;-68
2021/04/17 07:30:17;;;;;;;6.45;3.40;;;7.20;68.50;;;;;;4986343;28;20034;-68
2021/04/17 07:32:46;;;;;;;6.75;2.88;;;7.30;68.60;;;;;;4933655;28;68413;-68
2021/04/17 07:35:17;;;;;;;9.57;2.70;;;7.40;69.00;;;;;;4979798;28;20118;-67
2021/04/17 07:37:46;;;;;;;7.57;3.00;;;7.50;68.10;;;;;;4968652;28;20554;-70
2021/04/17 07:40:20;;;;;;;8.00;3.08;;;7.50;68.40;;;;;;4976631;28;20457;-68
2021/04/17 07:42:50;;;;;;;7.65;3.10;;;7.60;68.20;;;;;;4968627;28;20035;-67
2021/04/17 07:45:23;;;;;;;7.25;3.20;;;7.60;68.00;;;;;;4959803;28;20031;-67
2021/04/17 07:47:50;;;;;;;7.10;3.15;;;7.70;68.00;;;;;;4952187;28;20032;-70
2021/04/17 07:50:17;;;;;;;5.70;2.90;;;7.70;67.80;;;;;;4955245;28;20031;-68
2021/04/17 07:52:43;;;;;;;6.35;3.00;;;7.70;67.70;;;;;;4958327;28;20449;-65
2021/04/17 07:55:10;;;;;;;5.97;2.38;;;7.70;67.80;;;;;;4954263;28;20026;-69
2021/04/17 07:57:43;;;;;;;6.55;2.92;;;7.80;68.00;;;;;;4960666;28;20023;-70
2021/04/17 08:00:13;;;;;;;8.88;3.35;;;7.90;68.10;;;;;;4958159;28;20038;-68
2021/04/17 08:02:42;;;;;;;9.83;2.70;;;8.00;67.20;;;;;;4957394;28;20023;-66
2021/04/17 08:05:09;;;;;;;5.63;2.42;;;8.00;67.30;;;;;;4955477;28;20342;-69
2021/04/17 08:07:35;;;;;;;5.82;2.75;;;8.10;67.20;;;;;;4956840;28;20027;-67
2021/04/17 08:10:01;;;;;;;7.55;3.00;;;8.30;66.40;;;;;;4953791;28;20038;-67
2021/04/17 08:12:27;;;;;;;9.25;3.13;;;8.40;66.10;;;;;;4949448;28;20024;-67
2021/04/17 08:14:53;;;;;;;5.75;2.83;;;8.50;65.70;;;;;;4953982;28;20477;-68
2021/04/17 08:17:20;;;;;;;5.85;2.75;;;8.50;65.10;;;;;;4951972;28;20039;-70
2021/04/17 08:19:46;;;;;;;4.45;2.47;;;8.50;65.80;;;;;;4951545;28;20110;-68
2021/04/17 08:22:12;;;;;;;6.25;2.70;;;8.50;66.00;;;;;;4949168;28;20141;-67
2021/04/17 08:24:41;;;;;;;5.68;2.55;;;8.50;65.60;;;;;;4950142;28;20485;-67
2021/04/17 08:27:09;;;;;;;6.15;2.35;;;8.50;65.30;;;;;;4950474;28;20024;-67
2021/04/17 08:29:49;;;;;;;5.78;2.45;;;8.60;65.00;;;;;;4948532;28;20120;-71
2021/04/17 08:32:28;;;;;;;6.40;2.95;;;8.70;64.20;;;;;;4945532;28;20031;-69
2021/04/17 08:35:00;;;;;;;5.90;2.42;;;8.70;63.90;;;;;;4950441;28;20556;-67
2021/04/17 08:37:26;;;;;;;8.07;2.90;;;8.70;63.50;;;;;;4952139;28;20131;-66
2021/04/17 08:39:54;;;;;;;5.72;2.10;;;8.80;62.90;;;;;;4952195;28;20479;-67
2021/04/17 08:42:39;;;;;;;7.13;2.30;;;8.70;62.60;;;;;;4948353;28;20176;-68
2021/04/17 08:45:17;;;;;;;5.90;2.47;;;8.70;62.50;;;;;;4952335;28;20034;-67
2021/04/17 08:47:57;;;;;;;3.70;1.83;;;8.80;61.50;;;;;;4949653;28;20313;-66
2021/04/17 08:50:34;;;;;;;4.57;2.28;;;9.00;61.50;;;;;;4948020;28;20027;-66
2021/04/17 08:53:00;;;;;;;5.60;2.40;;;9.00;61.20;;;;;;4946495;28;20042;-68
2021/04/17 08:55:47;;;;;;;4.07;2.33;;;9.20;60.40;;;;;;4951525;28;20417;-67
2021/04/17 08:58:19;;;;;;;4.70;1.92;;;9.20;60.20;;;;;;4945430;28;20136;-68
2021/04/17 09:01:07;;;;;;;5.60;2.67;;;9.20;60.70;;;;;;4952150;28;20031;-66
2021/04/17 09:03:42;;;;;;;5.18;2.30;;;9.40;58.00;;;;;;4953099;28;20516;-68
2021/04/17 09:06:30;;;;;;;5.93;2.17;;;9.50;58.40;;;;;;4953294;28;20501;-69
2021/04/17 09:09:15;;;;;;;5.45;2.17;;;9.60;57.40;;;;;;4948940;28;20031;-66
2021/04/17 09:11:49;;;;;;;4.47;2.40;;;9.80;56.70;;;;;;4952222;28;20540;-68
2021/04/17 09:14:41;;;;;;;6.50;1.90;;;9.90;55.10;;;;;;4954860;28;20027;-67
2021/04/17 09:17:07;;;;;;;;;;;9.90;55.90;;;;;;4958208;28;20660;-66
2021/04/17 09:19:44;;;;;;;6.35;2.60;;;9.90;56.30;;;;;;4956177;28;19993;-70
2021/04/17 09:22:42;;;;;;;5.38;1.85;;;9.90;55.10;;;;;;4954319;28;20031;-68
2021/04/17 09:25:11;;;;;;;5.75;2.00;;;10.10;54.60;;;;;;4944241;28;20557;-68
2021/04/17 09:27:45;;;;;;;3.40;1.73;;;10.10;55.60;;;;;;4952713;28;20548;-68
2021/04/17 09:30:18;;;;;;;3.97;2.13;;;10.20;53.90;;;;;;4952374;28;20134;-65
2021/04/17 09:32:46;;;;;;;4.97;1.92;;;10.30;54.00;;;;;;4959762;28;20078;-67
2021/04/17 09:35:12;;;;;;;6.07;2.30;;;10.20;53.80;;;;;;4961208;28;20030;-69
2021/04/17 09:37:38;;;;;;;4.70;2.05;;;10.30;54.10;;;;;;4953337;28;20123;-66
2021/04/17 09:40:05;;;;;;;7.90;2.17;;;10.30;54.30;;;;;;4950499;28;20039;-69
2021/04/17 09:42:33;;;;;;;3.83;2.08;;;10.30;54.60;;;;;;4945610;28;20035;-66
2021/04/17 09:45:00;;;;;;;5.47;2.22;;;10.30;55.30;;;;;;4951163;28;20035;-66
2021/04/17 09:47:26;;;;;;;5.85;2.10;;;10.30;55.40;;;;;;4951424;28;20035;-70
2021/04/17 09:49:53;;;;;;;4.38;1.98;;;10.40;55.80;;;;;;4954786;28;20110;-66
2021/04/17 09:52:22;;;;;;;6.47;2.72;;;10.50;54.10;;;;;;4957670;28;20027;-66
2021/04/17 09:55:00;;;;;;;5.45;2.25;;;10.50;53.70;;;;;;4958645;28;20046;-68
2021/04/17 09:57:30;;;;;;;5.78;2.25;;;10.50;54.10;;;;;;4957555;28;20111;-70
2021/04/17 09:59:57;;;;;;;3.28;1.90;;;10.50;54.80;;;;;;4950377;28;20081;-68
2021/04/17 10:02:38;;;;;;;6.03;2.00;;;10.60;55.10;;;;;;4955104;28;20102;-68
2021/04/17 10:05:05;;;;;;;3.72;1.95;;;10.50;55.50;;;;;;4950015;28;20035;-67
2021/04/17 10:07:44;;;;;;;4.70;1.75;;;10.70;57.00;;;;;;4960890;28;20553;-66
2021/04/17 10:10:11;;;;;;;5.30;1.98;;;10.70;56.10;;;;;;4946979;28;20102;-71
2021/04/17 10:12:51;;;;;;;3.33;1.77;;;11.00;59.80;;;;;;4953641;28;20027;-66
2021/04/17 10:15:22;;;;;;;5.07;1.63;;;11.40;53.90;;;;;;4957799;28;20694;-68
2021/04/17 10:17:50;;;;;;;5.22;1.98;;;11.60;54.30;;;;;;4958993;28;20027;-67
2021/04/17 10:20:17;;;;;;;5.03;2.03;;;11.60;51.80;;;;;;4947341;28;20153;-66
2021/04/17 10:23:00;;;;;;;3.50;1.63;;;11.70;51.40;;;;;;4953119;28;20062;-66
2021/04/17 10:25:52;;;;;;;4.38;1.55;;;11.70;50.90;;;;;;4954972;28;20028;-68
2021/04/17 10:28:26;;;;;;;4.50;1.92;;;11.50;52.60;;;;;;4945868;28;20045;-68
2021/04/17 10:30:55;;;;;;;4.13;2.00;;;11.40;52.90;;;;;;4965068;28;21069;-67
2021/04/17 10:33:22;;;;;;;3.83;1.60;;;11.50;52.80;;;;;;4952009;28;20433;-67
2021/04/17 10:35:51;;;;;;;7.13;2.22;;;11.60;52.20;;;;;;4951821;28;20062;-72
2021/04/17 10:38:39;;;;;;;5.70;1.85;;;11.70;52.30;;;;;;4949905;29;20027;-68
2021/04/17 10:41:05;;;;;;;5.20;1.50;;;11.70;52.50;;;;;;4953233;28;20086;-68
2021/04/17 10:43:32;;;;;;;3.83;1.55;;;11.70;53.10;;;;;;4955979;28;20507;-71
2021/04/17 10:46:01;;;;;;;4.35;1.80;;;11.80;52.90;;;;;;4959660;28;20504;-67
2021/04/17 10:48:28;;;;;;;4.50;1.80;;;11.80;52.10;;;;;;4932859;29;20126;-68
2021/04/17 10:51:09;;;;;;;4.45;2.03;;;11.80;51.70;;;;;;4958265;28;20431;-71
2021/04/17 10:53:43;;;;;;;6.20;2.00;;;11.90;52.60;;;;;;4956383;28;20062;-66
2021/04/17 10:56:14;;;;;;;5.47;1.85;;;11.90;53.30;;;;;;4960616;28;20022;-72
2021/04/17 10:58:45;;;;;;;3.95;1.90;;;12.00;51.50;;;;;;4951297;28;20106;-69
2021/04/17 11:01:25;;;;;;;3.80;1.95;;;12.10;51.60;;;;;;4948135;28;20054;-70
2021/04/17 11:03:54;;;;;;;3.55;1.55;;;12.30;50.90;;;;;;4948448;28;20038;-69
2021/04/17 11:06:24;;;;;;;3.65;2.00;;;12.20;51.50;;;;;;4950492;28;20027;-67
2021/04/17 11:09:06;;;;;;;3.28;1.90;;;12.30;51.70;;;;;;4955710;28;20054;-70
2021/04/17 11:11:33;;;;;;;9.15;1.98;;;12.70;50.80;;;;;;4944532;28;20117;-72
2021/04/17 11:14:01;;;;;;;3.70;1.80;;;12.90;50.60;;;;;;4947068;28;20079;-67
2021/04/17 11:16:37;;;;;;;3.60;1.50;;;13.40;53.40;;;;;;4950042;28;20055;-68
2021/04/17 11:19:03;;;;;;;4.93;1.85;;;14.40;51.10;;;;;;4946093;28;20032;-67
2021/04/17 11:21:29;;;;;;;4.95;1.60;;;16.20;43.70;;;;;;4963625;28;20034;-67
2021/04/17 11:23:59;;;;;;;3.40;1.55;;;17.60;42.60;;;;;;4958867;28;20027;-70
2021/04/17 11:26:30;;;;;;;9.40;2.20;;;18.10;41.70;;;;;;4966136;28;20113;-71
2021/04/17 11:28:58;;;;;;;3.88;1.50;;;19.60;36.20;;;;;;4949339;28;20035;-68
2021/04/17 11:31:30;;;;;;;4.72;1.63;;;20.10;33.80;;;;;;4935071;28;20043;-68
2021/04/17 11:33:59;;;;;;;4.10;1.57;;;20.30;32.90;;;;;;4952216;28;20035;-70
2021/04/17 11:36:29;;;;;;;5.05;1.55;;;20.00;35.70;;;;;;4959960;28;20301;-68
2021/04/17 11:38:55;;;;;;;2.75;1.52;;;20.00;30.80;;;;;;4947752;28;20035;-68
2021/04/17 11:41:21;;;;;;;4.55;1.50;;;19.60;34.00;;;;;;4954006;28;20077;-67
2021/04/17 11:43:47;;;;;;;3.50;1.50;;;19.60;34.00;;;;;;4948285;28;20062;-68
2021/04/17 11:46:15;;;;;;;3.85;1.60;;;19.30;34.10;;;;;;4953576;28;20038;-68
2021/04/17 11:48:42;;;;;;;2.50;1.67;;;19.10;34.20;;;;;;4946269;28;20043;-68
2021/04/17 11:51:09;;;;;;;5.43;1.50;;;18.50;33.50;;;;;;4948029;28;20039;-68
2021/04/17 11:53:36;;;;;;;4.45;1.83;;;18.10;36.50;;;;;;4947641;28;20027;-68
2021/04/17 11:56:03;;;;;;;7.32;1.67;;;18.20;36.30;;;;;;4952530;28;20050;-70
2021/04/17 11:58:28;;;;;;;7.03;1.92;;;18.20;36.20;;;;;;4948606;28;20082;-67
2021/04/17 12:00:54;;;;;;;5.72;1.50;;;18.00;36.10;;;;;;4952927;28;20031;-67
2021/04/17 12:03:23;;;;;;;8.38;2.00;;;17.70;35.50;;;;;;4954152;28;20409;-67
2021/04/17 12:05:54;;;;;;;4.93;1.67;;;17.30;37.30;;;;;;4950977;28;20039;-72
2021/04/17 12:08:23;;;;;;;;;;;17.00;38.20;;;;;;4964641;28;20035;-67
2021/04/17 12:10:50;;;;;;;3.05;1.50;;;17.00;37.50;;;;;;4947496;28;19964;-70
2021/04/17 12:13:17;;;;;;;4.85;1.73;;;16.90;38.30;;;;;;4953509;28;20035;-71
2021/04/17 12:15:46;;;;;;;3.35;1.90;;;16.90;38.60;;;;;;4951367;28;20033;-66
2021/04/17 12:18:12;;;;;;;5.07;1.70;;;16.80;39.50;;;;;;4950419;28;20024;-66
2021/04/17 12:20:38;;;;;;;2.53;1.35;;;17.30;37.80;;;;;;4948185;28;20047;-66
2021/04/17 12:23:04;;;;;;;2.40;1.30;;;17.60;36.90;;;;;;4971720;28;20023;-69
2021/04/17 12:25:30;;;;;;;5.47;1.67;;;17.60;37.40;;;;;;4953591;28;20023;-67
2021/04/17 12:27:56;;;;;;;3.92;1.55;;;17.60;38.40;;;;;;4953801;28;20086;-67
2021/04/17 12:30:23;;;;;;;4.53;1.60;;;17.70;36.80;;;;;;4957733;28;20105;-70
2021/04/17 12:32:48;;;;;;;4.57;1.60;;;17.80;37.70;;;;;;4958176;28;20064;-68
2021/04/17 12:35:15;;;;;;;4.18;1.75;;;18.10;38.90;;;;;;4966601;28;20031;-68
2021/04/17 12:37:44;;;;;;;3.25;1.60;;;18.30;38.20;;;;;;4954205;28;20549;-69
2021/04/17 12:40:10;;;;;;;3.83;1.75;;;18.70;37.90;;;;;;4946538;28;20035;-67
2021/04/17 12:42:37;;;;;;;3.97;1.58;;;19.00;38.60;;;;;;4953155;28;20031;-67
2021/04/17 12:45:06;;;;;;;5.97;2.08;;;19.30;36.90;;;;;;4953777;28;20070;-68
2021/04/17 12:47:32;;;;;;;3.28;1.70;;;19.20;35.90;;;;;;4949048;28;20039;-69
2021/04/17 12:49:57;;;;;;;6.75;1.88;;;19.20;37.00;;;;;;4952455;28;20035;-69
2021/04/17 12:52:23;;;;;;;5.57;2.15;;;19.20;37.20;;;;;;4965127;28;20090;-66
2021/04/17 12:54:48;;;;;;;4.38;1.80;;;19.50;36.40;;;;;;4950703;28;20027;-66
2021/04/17 12:57:15;;;;;;;3.20;1.73;;;19.80;37.10;;;;;;4957486;28;20504;-67
2021/04/17 12:59:40;;;;;;;6.85;2.15;;;20.20;35.50;;;;;;4947930;28;20050;-70
2021/04/17 13:02:07;;;;;;;4.68;1.92;;;20.40;35.10;;;;;;4950581;28;20065;-69
2021/04/17 13:04:33;;;;;;;3.35;1.65;;;20.80;33.90;;;;;;4951674;28;20035;-70